Time;durP1;ratioP1;P1;durP2;ratioP2;P2;SDS_P1;SDS_P2;PMS_P1;PMS_P2;Temp;Humidity;BMP_temperature;BMP_pressure;BME280_temperature;BME280_humidity;BME280_pressure;Samples;Min_cycle;Max_cycle;Signal;HPM_P1;HPM_P2
2022/08/08 00:02:08;;;;;;;7.38;3.20;;;19.10;77.10;;;;;;5010506;28;20148;-71
2022/08/08 00:04:40;;;;;;;5.00;3.35;;;19.10;77.20;;;;;;5012019;28;20057;-73
2022/08/08 00:07:19;;;;;;;4.75;3.45;;;19.10;76.90;;;;;;5012057;28;20030;-72
2022/08/08 00:10:08;;;;;;;5.65;2.60;;;19.10;77.10;;;;;;5011362;28;20132;-72
2022/08/08 00:13:00;;;;;;;5.22;3.40;;;19.10;77.40;;;;;;5010911;28;20034;-73
2022/08/08 00:15:42;;;;;;;5.68;4.20;;;19.00;77.60;;;;;;5011551;28;20029;-72
2022/08/08 00:18:30;;;;;;;4.95;3.60;;;19.00;78.20;;;;;;5010623;28;20109;-72
2022/08/08 00:20:57;;;;;;;5.53;3.42;;;18.80;78.50;;;;;;5011439;28;20042;-71
2022/08/08 00:23:28;;;;;;;6.77;3.60;;;18.80;78.40;;;;;;5011384;28;21286;-73
2022/08/08 00:25:59;;;;;;;5.18;3.47;;;18.80;78.60;;;;;;5011862;28;20026;-71
2022/08/08 00:28:47;;;;;;;4.57;3.38;;;18.70;79.10;;;;;;5011767;28;20030;-72
2022/08/08 00:31:31;;;;;;;6.97;3.30;;;18.60;79.40;;;;;;5011406;28;20558;-73
2022/08/08 00:37:27;;;;;;;;;;;18.50;80.30;;;;;;5011144;28;20506;-73
2022/08/08 00:40:01;;;;;;;;;;;18.40;81.00;;;;;;5011577;28;19913;-72
2022/08/08 00:42:45;;;;;;;6.00;2.85;;;18.30;81.10;;;;;;5011110;28;20383;-72
2022/08/08 00:45:52;;;;;;;6.30;3.55;;;18.30;81.60;;;;;;5011066;28;20053;-73
2022/08/08 00:48:36;;;;;;;7.40;3.28;;;18.20;82.10;;;;;;5011133;28;20056;-72
2022/08/08 00:51:32;;;;;;;6.25;3.88;;;18.10;82.10;;;;;;5011256;28;20096;-72
2022/08/08 00:54:08;;;;;;;5.45;3.60;;;18.00;82.50;;;;;;5011017;28;20124;-73
2022/08/08 00:56:49;;;;;;;5.63;3.33;;;18.00;83.10;;;;;;5010834;28;20045;-73
2022/08/08 00:59:48;;;;;;;6.60;4.00;;;17.90;83.30;;;;;;5010893;28;20447;-72
2022/08/08 01:02:39;;;;;;;7.57;4.20;;;17.90;83.60;;;;;;5009906;28;20045;-73
2022/08/08 01:05:29;;;;;;;5.97;3.83;;;17.90;84.40;;;;;;5010219;28;20105;-72
2022/08/08 01:08:13;;;;;;;5.20;3.90;;;17.80;84.60;;;;;;5011109;28;20057;-72
2022/08/08 01:10:55;;;;;;;6.32;3.83;;;17.80;85.10;;;;;;5010903;28;20050;-73
2022/08/08 01:13:48;;;;;;;7.30;3.90;;;17.80;85.30;;;;;;5009516;28;20065;-73
2022/08/08 01:16:44;;;;;;;5.30;3.53;;;17.70;85.40;;;;;;5010819;28;20491;-74
2022/08/08 01:19:25;;;;;;;4.80;4.03;;;17.70;86.20;;;;;;5009593;28;20464;-73
2022/08/08 01:21:57;;;;;;;6.35;4.18;;;17.70;86.20;;;;;;5010233;28;20109;-73
2022/08/08 01:24:54;;;;;;;5.60;3.78;;;17.70;86.90;;;;;;5009347;28;20092;-72
2022/08/08 01:27:57;;;;;;;6.28;4.00;;;17.70;87.20;;;;;;5010373;28;20475;-72
2022/08/08 01:30:26;;;;;;;5.43;3.85;;;17.70;87.10;;;;;;5010441;28;20037;-72
2022/08/08 01:33:10;;;;;;;7.70;4.03;;;17.70;87.60;;;;;;5010422;28;20060;-71
2022/08/08 01:35:46;;;;;;;6.20;4.07;;;17.70;87.80;;;;;;5016513;28;20044;-72
2022/08/08 01:38:49;;;;;;;6.32;3.50;;;17.70;87.90;;;;;;5029785;28;20462;-73
2022/08/08 01:41:28;;;;;;;8.25;4.20;;;17.60;87.80;;;;;;5029909;28;20458;-72
2022/08/08 01:44:20;;;;;;;6.85;4.13;;;17.70;87.70;;;;;;5030609;28;20026;-72
2022/08/08 01:47:25;;;;;;;6.18;4.22;;;17.70;87.90;;;;;;5030192;28;20032;-72
2022/08/08 01:50:31;;;;;;;6.13;3.83;;;17.70;88.50;;;;;;5029953;28;20179;-72
2022/08/08 01:53:34;;;;;;;5.47;3.83;;;17.60;88.40;;;;;;5025899;28;20029;-75
2022/08/08 01:56:20;;;;;;;8.10;3.90;;;17.60;88.50;;;;;;5029479;28;20103;-72
2022/08/08 01:59:17;;;;;;;13.60;4.40;;;17.60;89.20;;;;;;5030168;28;20278;-73
2022/08/08 02:01:42;;;;;;;5.88;4.03;;;17.60;88.60;;;;;;5029556;28;20099;-72
2022/08/08 02:04:23;;;;;;;8.35;3.90;;;17.50;89.30;;;;;;5029897;28;20021;-73
2022/08/08 02:07:25;;;;;;;6.88;4.47;;;17.60;89.10;;;;;;5029731;28;20060;-72
2022/08/08 02:10:26;;;;;;;7.75;4.35;;;17.50;89.30;;;;;;5029696;28;20042;-72
2022/08/08 02:13:00;;;;;;;5.68;4.22;;;17.50;89.30;;;;;;5029666;28;20033;-72
2022/08/08 02:15:26;;;;;;;5.45;4.22;;;17.50;89.70;;;;;;5029793;28;20042;-71
2022/08/08 02:18:18;;;;;;;6.78;4.60;;;17.40;89.70;;;;;;5028535;28;20052;-72
2022/08/08 02:24:14;;;;;;;6.47;3.95;;;17.40;90.10;;;;;;5029674;28;20080;-73
2022/08/08 02:26:50;;;;;;;5.60;3.90;;;17.30;90.20;;;;;;5029777;28;20124;-72
2022/08/08 02:29:31;;;;;;;6.20;3.83;;;17.30;90.20;;;;;;5029653;28;20017;-72
2022/08/08 02:32:34;;;;;;;8.02;4.45;;;17.30;90.30;;;;;;5029966;28;20348;-72
2022/08/08 02:35:03;;;;;;;5.78;4.03;;;17.20;90.30;;;;;;5033119;28;20044;-72
2022/08/08 02:38:06;;;;;;;6.95;4.32;;;17.20;90.30;;;;;;5033803;28;20041;-72
2022/08/08 02:40:34;;;;;;;5.78;4.28;;;17.20;90.40;;;;;;5033030;28;20120;-73
2022/08/08 02:43:21;;;;;;;7.45;4.32;;;17.20;90.40;;;;;;5033111;28;20029;-73
2022/08/08 02:45:48;;;;;;;7.72;4.47;;;17.20;90.60;;;;;;5032882;28;20033;-73
2022/08/08 02:48:25;;;;;;;4.95;3.72;;;17.20;90.60;;;;;;5033291;28;20043;-73
2022/08/08 02:50:56;;;;;;;5.53;4.07;;;17.20;90.60;;;;;;5033159;28;20459;-73
2022/08/08 02:53:34;;;;;;;8.48;4.20;;;17.10;90.70;;;;;;5033054;28;20027;-73
2022/08/08 02:56:17;;;;;;;;;;;17.10;90.80;;;;;;5033559;28;20368;-74
2022/08/08 02:59:16;;;;;;;7.82;3.95;;;17.00;90.90;;;;;;5032995;28;19971;-72
2022/08/08 03:02:21;;;;;;;6.88;4.38;;;17.00;90.80;;;;;;5031547;28;20041;-72
2022/08/08 03:05:08;;;;;;;7.43;4.85;;;17.10;90.80;;;;;;5033382;28;20052;-73
2022/08/08 03:08:10;;;;;;;5.63;4.40;;;17.00;90.80;;;;;;5033186;28;20367;-72
2022/08/08 03:11:08;;;;;;;9.68;4.45;;;17.00;91.00;;;;;;5032796;28;20739;-73
2022/08/08 03:14:11;;;;;;;6.72;3.92;;;17.00;90.90;;;;;;5033001;28;20452;-73
2022/08/08 03:17:25;;;;;;;6.53;3.85;;;16.90;91.00;;;;;;5032858;28;20037;-73
2022/08/08 03:20:21;;;;;;;7.82;4.93;;;16.90;91.20;;;;;;5027895;28;20373;-72
2022/08/08 03:22:48;;;;;;;9.80;4.55;;;16.90;91.40;;;;;;5032456;28;20048;-71
2022/08/08 03:25:16;;;;;;;9.40;4.80;;;16.80;91.40;;;;;;5032934;28;20063;-73
2022/08/08 03:27:51;;;;;;;9.02;4.38;;;16.80;91.40;;;;;;5032972;28;20478;-72
2022/08/08 03:30:19;;;;;;;6.82;4.28;;;16.70;91.60;;;;;;5032409;28;20155;-72
2022/08/08 03:35:30;;;;;;;8.30;4.85;;;16.60;91.70;;;;;;5032633;28;20368;-73
2022/08/08 03:37:59;;;;;;;8.82;4.53;;;16.50;91.90;;;;;;5032463;28;20022;-72
2022/08/08 03:40:24;;;;;;;12.77;5.13;;;16.50;92.00;;;;;;5032592;28;20037;-73
2022/08/08 03:42:51;;;;;;;9.07;4.85;;;16.40;92.30;;;;;;5032224;28;20081;-73
2022/08/08 03:45:21;;;;;;;9.38;4.80;;;16.40;92.30;;;;;;5031805;28;20038;-73
2022/08/08 03:48:01;;;;;;;10.63;4.65;;;16.30;92.30;;;;;;5032384;28;20057;-74
2022/08/08 03:50:28;;;;;;;6.40;4.72;;;16.30;92.40;;;;;;5032215;28;20483;-72
2022/08/08 03:52:54;;;;;;;8.40;4.50;;;16.30;92.50;;;;;;5032433;28;20124;-73
2022/08/08 03:55:22;;;;;;;13.45;5.55;;;16.30;92.60;;;;;;5031912;28;20376;-73
2022/08/08 03:57:50;;;;;;;8.88;4.80;;;16.30;92.60;;;;;;5031825;28;20033;-72
2022/08/08 04:00:18;;;;;;;5.88;4.13;;;16.30;92.80;;;;;;5030992;28;20099;-73
2022/08/08 04:02:53;;;;;;;9.88;5.32;;;16.30;92.90;;;;;;5031978;28;20034;-73
2022/08/08 04:05:19;;;;;;;7.65;4.35;;;16.30;92.70;;;;;;5031857;28;20214;-73
2022/08/08 04:07:45;;;;;;;9.88;5.45;;;16.30;92.80;;;;;;5031117;28;20537;-74
2022/08/08 04:10:11;;;;;;;14.35;4.65;;;16.40;92.90;;;;;;5032017;28;20356;-73
2022/08/08 04:12:37;;;;;;;11.90;5.10;;;16.30;92.90;;;;;;5031716;28;20098;-73
2022/08/08 04:15:04;;;;;;;8.52;5.05;;;16.30;92.90;;;;;;5031884;28;20455;-73
2022/08/08 04:17:30;;;;;;;7.15;4.68;;;16.30;93.00;;;;;;5031766;28;20041;-72
2022/08/08 04:19:55;;;;;;;6.45;4.97;;;16.30;93.20;;;;;;5032255;28;20448;-71
2022/08/08 04:22:25;;;;;;;7.80;4.55;;;16.30;93.10;;;;;;5030411;28;20040;-73
2022/08/08 04:24:52;;;;;;;7.25;5.00;;;16.40;93.10;;;;;;5030448;28;20116;-73
2022/08/08 04:27:19;;;;;;;7.55;4.70;;;16.30;93.20;;;;;;5030089;28;20042;-72
2022/08/08 04:29:44;;;;;;;9.88;5.10;;;16.30;93.30;;;;;;5030461;28;20037;-74
2022/08/08 04:32:13;;;;;;;12.35;4.82;;;16.40;93.40;;;;;;5030319;28;20021;-74
2022/08/08 04:34:39;;;;;;;6.95;4.80;;;16.40;93.30;;;;;;5032006;28;20423;-73
2022/08/08 04:37:05;;;;;;;8.43;4.82;;;16.40;93.20;;;;;;5031138;28;20033;-72
2022/08/08 04:39:31;;;;;;;9.40;5.97;;;16.40;93.40;;;;;;5031055;28;20332;-73
2022/08/08 04:41:56;;;;;;;12.57;5.72;;;16.40;93.50;;;;;;5031217;28;20033;-72
2022/08/08 04:44:22;;;;;;;12.02;4.82;;;16.50;93.40;;;;;;5031018;28;20021;-74
2022/08/08 04:46:48;;;;;;;8.38;4.65;;;16.50;93.30;;;;;;5030362;28;20049;-74
2022/08/08 04:49:14;;;;;;;19.33;5.93;;;16.50;93.30;;;;;;5031217;28;20129;-75
2022/08/08 04:51:39;;;;;;;8.13;4.82;;;16.50;93.30;;;;;;5031159;28;20533;-76
2022/08/08 04:54:05;;;;;;;11.70;6.25;;;16.50;93.30;;;;;;5031165;28;20038;-74
2022/08/08 04:56:30;;;;;;;8.20;5.28;;;16.50;93.50;;;;;;5030098;28;20033;-75
2022/08/08 04:58:56;;;;;;;7.53;4.80;;;16.40;93.60;;;;;;5031399;28;20026;-74
2022/08/08 05:01:22;;;;;;;8.60;5.20;;;16.40;93.90;;;;;;5030842;28;20029;-74
2022/08/08 05:03:48;;;;;;;8.35;4.85;;;16.40;93.90;;;;;;5030143;28;20042;-73
2022/08/08 05:06:14;;;;;;;7.78;4.65;;;16.40;93.90;;;;;;5031115;28;20429;-76
2022/08/08 05:08:41;;;;;;;5.93;4.50;;;16.40;94.00;;;;;;5030796;28;20026;-77
2022/08/08 05:11:07;;;;;;;14.23;5.55;;;16.40;94.30;;;;;;5030747;28;20036;-77
2022/08/08 05:13:33;;;;;;;6.97;4.97;;;16.40;94.10;;;;;;5031186;28;20025;-78
2022/08/08 05:15:58;;;;;;;8.68;4.85;;;16.40;94.10;;;;;;5030743;28;20466;-78
2022/08/08 05:18:24;;;;;;;31.00;7.00;;;16.40;94.30;;;;;;5030802;28;20048;-80
2022/08/08 05:20:50;;;;;;;21.02;6.40;;;16.50;94.40;;;;;;5030815;28;20029;-75
2022/08/08 05:23:16;;;;;;;14.45;5.95;;;16.50;94.40;;;;;;5030552;28;20026;-75
2022/08/08 05:25:42;;;;;;;11.77;5.20;;;16.50;94.40;;;;;;5031717;28;20032;-74
2022/08/08 05:28:07;;;;;;;12.95;5.95;;;16.60;94.10;;;;;;5029412;28;20037;-72
2022/08/08 05:30:33;;;;;;;12.95;6.00;;;16.70;94.90;;;;;;5030630;28;20021;-75
2022/08/08 05:32:59;;;;;;;12.27;5.05;;;16.70;94.20;;;;;;5030586;28;20124;-74
2022/08/08 05:35:25;;;;;;;11.63;6.53;;;16.90;94.20;;;;;;5030486;28;20030;-72
2022/08/08 05:38:02;;;;;;;11.93;5.18;;;16.90;94.10;;;;;;5030808;28;20033;-70
2022/08/08 05:40:28;;;;;;;14.10;7.70;;;16.90;94.20;;;;;;5030405;28;20033;-73
2022/08/08 05:43:01;;;;;;;8.68;5.43;;;17.00;93.90;;;;;;5030720;28;20407;-77
2022/08/08 05:45:27;;;;;;;8.32;5.25;;;17.10;94.00;;;;;;5030436;28;20037;-74
2022/08/08 05:47:55;;;;;;;11.27;5.75;;;17.10;93.70;;;;;;5030272;28;20049;-75
2022/08/08 05:50:22;;;;;;;8.63;5.82;;;17.10;93.90;;;;;;5029450;28;20045;-74
2022/08/08 05:52:48;;;;;;;10.57;6.03;;;17.20;93.60;;;;;;5030900;28;20344;-76
2022/08/08 05:55:14;;;;;;;9.73;5.57;;;17.30;93.40;;;;;;5029321;28;20151;-76
2022/08/08 05:57:41;;;;;;;61.95;38.25;;;17.40;93.10;;;;;;5030354;28;20460;-76
2022/08/08 06:00:10;;;;;;;70.13;39.60;;;17.40;92.90;;;;;;5030641;28;20460;-76
2022/08/08 06:03:10;;;;;;;76.55;43.35;;;17.50;92.80;;;;;;5030622;28;20465;-75
2022/08/08 06:05:31;;;;;;;43.72;25.52;;;17.60;92.60;;;;;;5031534;28;20033;-77
2022/08/08 06:07:58;;;;;;;15.32;8.85;;;17.60;92.40;;;;;;5033667;28;20099;-77
2022/08/08 06:10:28;;;;;;;10.98;6.57;;;17.70;92.30;;;;;;5034578;28;20034;-76
2022/08/08 06:12:54;;;;;;;9.25;5.82;;;17.70;92.20;;;;;;5034413;28;20038;-75
2022/08/08 06:15:20;;;;;;;10.82;5.95;;;17.70;92.20;;;;;;5034214;28;20072;-78
2022/08/08 06:17:47;;;;;;;13.00;5.95;;;17.80;92.20;;;;;;5033080;28;20041;-77
2022/08/08 06:20:12;;;;;;;16.83;7.07;;;17.80;92.10;;;;;;5034826;28;20025;-74
2022/08/08 06:22:39;;;;;;;13.35;5.88;;;17.80;92.20;;;;;;5036341;28;20044;-75
2022/08/08 06:25:05;;;;;;;14.27;5.90;;;17.80;91.90;;;;;;5036636;28;20037;-76
2022/08/08 06:27:53;;;;;;;10.25;6.13;;;17.80;91.80;;;;;;5036743;28;20117;-79
2022/08/08 06:30:20;;;;;;;11.30;5.45;;;17.90;91.80;;;;;;5039025;28;20033;-81
2022/08/08 06:32:56;;;;;;;159.90;79.28;;;17.90;91.70;;;;;;5038408;28;20389;-79
2022/08/08 06:35:23;;;;;;;80.60;46.22;;;18.00;91.60;;;;;;5038501;28;20049;-80
2022/08/08 06:38:03;;;;;;;341.52;189.23;;;18.00;91.40;;;;;;5037975;28;20510;-77
2022/08/08 06:40:31;;;;;;;30.83;16.83;;;18.10;91.40;;;;;;5035866;28;20034;-81
2022/08/08 06:43:04;;;;;;;15.32;6.35;;;18.20;91.40;;;;;;5037222;28;20026;-77
2022/08/08 06:45:32;;;;;;;14.43;6.53;;;18.20;91.30;;;;;;5034822;28;20025;-79
2022/08/08 06:47:59;;;;;;;16.95;7.10;;;18.30;91.20;;;;;;5034351;28;20527;-76
2022/08/08 06:50:25;;;;;;;15.00;6.40;;;18.30;91.20;;;;;;5033191;28;20033;-77
2022/08/08 06:52:51;;;;;;;12.90;5.97;;;18.40;91.10;;;;;;5034535;28;20021;-75
2022/08/08 06:55:20;;;;;;;15.80;7.00;;;18.50;90.90;;;;;;5033678;28;20129;-75
2022/08/08 06:57:46;;;;;;;11.77;6.30;;;18.60;91.00;;;;;;5032778;28;20281;-77
2022/08/08 07:00:12;;;;;;;19.17;6.05;;;18.70;90.80;;;;;;5035146;28;20113;-82
2022/08/08 07:02:42;;;;;;;12.68;6.47;;;18.70;90.70;;;;;;5032574;28;20044;-81
2022/08/08 07:05:12;;;;;;;10.48;6.45;;;18.70;90.70;;;;;;5033800;28;20116;-80
2022/08/08 07:07:50;;;;;;;20.35;5.35;;;18.80;90.50;;;;;;5032938;28;20022;-77
2022/08/08 07:10:22;;;;;;;18.10;6.22;;;18.80;90.40;;;;;;5034686;28;20034;-81
2022/08/08 07:13:04;;;;;;;13.70;5.80;;;18.90;90.50;;;;;;5033699;28;20056;-81
2022/08/08 07:15:40;;;;;;;11.68;5.65;;;19.00;90.40;;;;;;5034891;28;20467;-78
2022/08/08 07:18:09;;;;;;;16.13;5.20;;;19.00;90.30;;;;;;5033536;28;20038;-83
2022/08/08 07:20:42;;;;;;;11.25;5.55;;;19.10;90.40;;;;;;5034109;28;20095;-80
2022/08/08 07:23:30;;;;;;;16.90;5.85;;;19.20;90.40;;;;;;5032633;28;20033;-79
2022/08/08 07:26:05;;;;;;;10.48;5.40;;;19.30;90.30;;;;;;5034082;28;20477;-79
2022/08/08 07:28:35;;;;;;;11.82;5.72;;;19.30;90.20;;;;;;5033395;28;20109;-81
2022/08/08 07:31:07;;;;;;;12.70;5.50;;;19.40;89.90;;;;;;5032014;28;20475;-81
2022/08/08 07:33:35;;;;;;;11.60;5.53;;;19.50;89.90;;;;;;5032164;28;20107;-81
2022/08/08 07:36:04;;;;;;;11.68;5.80;;;19.50;89.60;;;;;;5033078;28;20033;-79
2022/08/08 07:38:33;;;;;;;9.98;5.90;;;19.50;89.30;;;;;;5032699;28;20398;-79
2022/08/08 07:41:00;;;;;;;12.90;5.75;;;19.60;89.60;;;;;;5033739;28;20021;-80
2022/08/08 07:43:27;;;;;;;10.30;5.43;;;19.50;88.50;;;;;;5033543;28;20041;-85
2022/08/08 07:45:53;;;;;;;10.18;5.78;;;19.60;89.30;;;;;;5033308;28;20037;-85
2022/08/08 07:48:19;;;;;;;11.13;4.78;;;19.60;88.50;;;;;;5032695;28;20375;-80
2022/08/08 07:50:47;;;;;;;9.20;5.63;;;19.70;89.10;;;;;;5032441;28;20452;-80
2022/08/08 07:53:18;;;;;;;;;;;19.90;88.80;;;;;;5031816;28;20029;-83
2022/08/08 07:55:47;;;;;;;12.55;6.10;;;20.00;88.20;;;;;;5032773;28;19960;-77
2022/08/08 07:58:30;;;;;;;8.38;4.63;;;19.90;86.20;;;;;;5031569;28;20347;-83
2022/08/08 08:01:11;;;;;;;7.25;4.55;;;20.00;86.70;;;;;;5032651;28;20033;-80
2022/08/08 08:04:01;;;;;;;8.68;4.35;;;20.20;87.20;;;;;;5032928;28;20044;-82
2022/08/08 08:06:29;;;;;;;10.50;4.28;;;20.40;85.50;;;;;;5032385;28;20400;-81
2022/08/08 08:09:24;;;;;;;7.78;3.97;;;20.60;86.20;;;;;;5032576;28;20129;-80
2022/08/08 08:11:51;;;;;;;6.15;3.85;;;20.60;85.80;;;;;;5036263;28;20053;-82
2022/08/08 08:14:22;;;;;;;8.70;4.10;;;20.70;85.30;;;;;;5033994;28;20075;-79
2022/08/08 08:16:50;;;;;;;7.13;4.10;;;21.00;84.40;;;;;;5034508;28;20221;-80
2022/08/08 08:19:16;;;;;;;5.18;3.40;;;21.20;84.30;;;;;;5032885;28;20041;-81
2022/08/08 08:21:45;;;;;;;101.05;63.65;;;21.40;83.50;;;;;;5032128;28;20033;-82
2022/08/08 08:24:12;;;;;;;469.33;325.17;;;21.60;83.20;;;;;;5031937;28;20033;-79
2022/08/08 08:26:38;;;;;;;56.42;37.13;;;21.90;83.10;;;;;;5032218;28;20029;-80
2022/08/08 08:29:04;;;;;;;14.80;10.13;;;22.70;84.20;;;;;;5033120;28;20036;-74
2022/08/08 08:31:30;;;;;;;4.10;3.35;;;23.50;76.80;;;;;;5033750;28;20026;-78
2022/08/08 08:33:56;;;;;;;7.85;3.58;;;24.30;79.50;;;;;;5035552;28;20040;-79
2022/08/08 08:36:23;;;;;;;9.48;3.05;;;25.60;74.80;;;;;;5034199;28;20122;-80
2022/08/08 08:38:50;;;;;;;8.15;3.67;;;26.70;73.30;;;;;;5035680;28;20068;-80
2022/08/08 08:41:18;;;;;;;7.10;4.05;;;27.80;72.00;;;;;;5034351;28;20087;-85
2022/08/08 08:43:45;;;;;;;6.10;3.08;;;28.60;63.00;;;;;;5033735;28;20559;-79
2022/08/08 08:46:12;;;;;;;3.65;3.03;;;29.30;61.60;;;;;;5036381;28;20119;-78
2022/08/08 08:48:40;;;;;;;5.25;2.83;;;29.90;59.50;;;;;;5033324;28;20025;-80
2022/08/08 08:51:10;;;;;;;7.88;3.17;;;29.70;54.10;;;;;;5032586;28;20128;-78
2022/08/08 08:53:42;;;;;;;5.47;2.88;;;30.60;55.50;;;;;;5030964;28;20063;-77
2022/08/08 08:56:10;;;;;;;4.45;2.90;;;31.30;53.30;;;;;;5030890;28;20102;-78
2022/08/08 08:58:44;;;;;;;3.90;3.00;;;31.90;53.60;;;;;;5031106;28;20029;-80
2022/08/08 09:01:14;;;;;;;6.28;2.88;;;32.60;50.80;;;;;;5031045;28;20045;-79
2022/08/08 09:03:43;;;;;;;3.88;2.83;;;33.10;50.60;;;;;;5031837;28;20087;-83
2022/08/08 09:06:16;;;;;;;4.72;2.97;;;33.40;49.70;;;;;;5031445;28;20367;-79
2022/08/08 09:08:49;;;;;;;6.18;3.58;;;33.80;48.00;;;;;;5031016;28;20026;-80
2022/08/08 09:11:17;;;;;;;7.90;3.88;;;34.40;46.60;;;;;;5029947;28;20093;-83
2022/08/08 09:13:44;;;;;;;4.30;2.72;;;34.80;46.10;;;;;;5031615;28;20025;-78
2022/08/08 09:16:10;;;;;;;5.90;3.08;;;35.20;45.50;;;;;;5032150;28;20076;-84
2022/08/08 09:18:38;;;;;;;4.30;2.78;;;35.50;43.30;;;;;;5033500;28;20128;-83
2022/08/08 09:21:10;;;;;;;4.60;2.90;;;35.30;41.60;;;;;;5032599;28;20363;-86
2022/08/08 09:23:37;;;;;;;5.78;3.28;;;35.60;41.90;;;;;;5034094;28;20030;-85
2022/08/08 09:26:18;;;;;;;5.32;2.53;;;36.20;41.30;;;;;;5032775;28;20436;-86
2022/08/08 09:28:44;;;;;;;9.82;3.85;;;35.60;39.70;;;;;;5031762;28;20053;-83
2022/08/08 09:31:19;;;;;;;8.27;3.05;;;35.80;40.10;;;;;;5031332;28;20368;-79
2022/08/08 09:33:47;;;;;;;4.47;3.00;;;36.50;39.40;;;;;;5030221;28;20493;-81
2022/08/08 09:36:22;;;;;;;5.13;3.13;;;36.00;38.40;;;;;;5030456;28;20025;-79
2022/08/08 09:38:58;;;;;;;5.63;2.58;;;35.00;39.50;;;;;;5031626;28;20041;-82
2022/08/08 09:41:33;;;;;;;4.20;2.95;;;35.90;39.90;;;;;;5032213;28;20033;-83
2022/08/08 09:44:14;;;;;;;3.25;2.22;;;36.60;39.00;;;;;;5036475;28;20482;-80
2022/08/08 09:46:42;;;;;;;4.07;2.67;;;36.40;37.20;;;;;;5035767;28;20053;-82
2022/08/08 09:49:10;;;;;;;3.95;2.42;;;37.00;37.50;;;;;;5035435;28;20026;-81
2022/08/08 09:51:39;;;;;;;2.90;2.60;;;35.10;36.90;;;;;;5035147;28;20591;-81
2022/08/08 09:54:06;;;;;;;5.18;2.83;;;35.20;38.40;;;;;;5033989;28;20116;-80
2022/08/08 09:56:36;;;;;;;15.95;13.23;;;35.30;37.50;;;;;;5035489;28;20551;-81
2022/08/08 09:59:04;;;;;;;3.28;2.40;;;35.70;35.80;;;;;;5035605;28;20087;-79
2022/08/08 10:01:31;;;;;;;6.53;2.60;;;33.80;36.50;;;;;;5034223;28;20382;-80
2022/08/08 10:03:59;;;;;;;5.60;2.72;;;33.90;37.90;;;;;;5035156;28;20040;-80
2022/08/08 10:06:26;;;;;;;4.78;2.70;;;34.50;38.00;;;;;;5035106;28;20033;-82
2022/08/08 10:08:53;;;;;;;4.22;2.70;;;34.50;37.60;;;;;;5034870;28;20030;-80
2022/08/08 10:11:20;;;;;;;2.58;2.30;;;34.80;37.70;;;;;;5033264;28;20026;-82
2022/08/08 10:13:53;;;;;;;;;;;35.20;36.50;;;;;;5034683;28;20033;-78
2022/08/08 10:16:20;;;;;;;6.15;2.63;;;34.70;36.70;;;;;;5035101;28;19909;-80
2022/08/08 10:18:46;;;;;;;3.60;2.80;;;34.70;36.70;;;;;;5034672;28;20044;-80
2022/08/08 10:21:17;;;;;;;6.85;2.88;;;34.50;37.80;;;;;;5034884;28;20347;-80
2022/08/08 10:23:48;;;;;;;3.55;2.97;;;34.10;37.30;;;;;;5034214;28;20052;-78
2022/08/08 10:26:33;;;;;;;9.75;4.72;;;33.40;38.00;;;;;;5034199;28;20021;-78
2022/08/08 10:29:05;;;;;;;5.10;2.78;;;32.80;38.20;;;;;;5035316;28;20025;-78
2022/08/08 10:34:21;;;;;;;4.57;2.22;;;31.70;39.30;;;;;;5034477;28;20052;-80
2022/08/08 10:36:48;;;;;;;3.25;2.20;;;31.60;39.70;;;;;;5033707;28;20037;-80
2022/08/08 10:39:23;;;;;;;12.48;3.38;;;30.90;40.00;;;;;;5034424;28;20041;-79
2022/08/08 10:41:59;;;;;;;4.65;2.17;;;30.90;40.60;;;;;;5034779;28;20037;-78
2022/08/08 10:44:40;;;;;;;7.60;2.13;;;30.90;40.80;;;;;;5034015;28;20503;-81
2022/08/08 10:47:09;;;;;;;7.22;2.42;;;30.80;40.80;;;;;;5034630;28;20419;-80
2022/08/08 10:49:36;;;;;;;4.68;2.55;;;29.70;41.00;;;;;;5035575;28;20010;-79
2022/08/08 10:52:02;;;;;;;5.00;2.08;;;30.10;41.70;;;;;;5034622;28;20044;-80
2022/08/08 10:54:27;;;;;;;2.53;1.90;;;30.10;40.90;;;;;;5033344;28;20033;-78
2022/08/08 10:57:03;;;;;;;2.78;1.80;;;29.80;41.10;;;;;;5032836;28;20041;-78
2022/08/08 10:59:28;;;;;;;2.35;2.15;;;29.80;41.30;;;;;;5034202;28;20045;-79
2022/08/08 11:01:54;;;;;;;2.85;1.83;;;29.90;41.40;;;;;;5034973;28;20037;-77
2022/08/08 11:04:21;;;;;;;4.55;2.25;;;29.80;41.30;;;;;;5032677;28;20121;-77
2022/08/08 11:06:46;;;;;;;2.80;2.10;;;29.40;41.70;;;;;;5034060;28;20033;-77
2022/08/08 11:09:12;;;;;;;3.28;2.30;;;29.60;41.50;;;;;;5033920;28;20044;-81
2022/08/08 11:11:43;;;;;;;4.57;2.10;;;29.30;41.60;;;;;;5034185;28;20123;-79
2022/08/08 11:14:13;;;;;;;4.28;2.22;;;29.30;42.10;;;;;;5034459;28;20074;-79
2022/08/08 11:16:42;;;;;;;3.47;2.38;;;29.30;41.90;;;;;;5034053;28;20033;-81
2022/08/08 11:19:08;;;;;;;7.03;2.45;;;29.30;41.60;;;;;;5033429;28;20356;-78
2022/08/08 11:21:40;;;;;;;4.47;2.10;;;29.60;41.90;;;;;;5032627;28;20107;-81
2022/08/08 11:24:08;;;;;;;6.03;2.60;;;29.60;41.60;;;;;;5034129;28;20033;-77
2022/08/08 11:26:35;;;;;;;3.83;2.08;;;29.40;41.70;;;;;;5032411;28;20026;-81
2022/08/08 11:29:03;;;;;;;3.00;1.90;;;29.40;42.20;;;;;;5034384;28;20033;-81
2022/08/08 11:31:47;;;;;;;5.88;2.35;;;29.00;42.50;;;;;;5033537;28;20112;-78
2022/08/08 11:34:15;;;;;;;2.50;2.00;;;28.80;43.20;;;;;;5034044;28;20037;-81
2022/08/08 11:36:42;;;;;;;2.67;2.08;;;29.00;42.60;;;;;;5033411;28;20646;-79
2022/08/08 11:39:10;;;;;;;3.55;2.17;;;28.90;42.80;;;;;;5033066;28;20396;-79
2022/08/08 11:41:35;;;;;;;;;;;29.00;42.90;;;;;;5033496;28;20548;-82
2022/08/08 11:44:04;;;;;;;3.45;2.00;;;29.20;42.70;;;;;;5033452;28;19987;-81
2022/08/08 11:46:33;;;;;;;6.50;2.55;;;29.10;42.70;;;;;;5033092;28;20037;-78
2022/08/08 11:49:07;;;;;;;6.75;3.50;;;28.80;42.20;;;;;;5032644;28;20044;-79
2022/08/08 11:51:34;;;;;;;3.83;2.42;;;28.50;43.00;;;;;;5031556;28;20041;-81
2022/08/08 11:54:00;;;;;;;3.40;2.33;;;28.60;43.40;;;;;;5032925;28;20033;-80
2022/08/08 11:56:31;;;;;;;8.10;2.35;;;28.60;43.40;;;;;;5032157;28;20034;-79
2022/08/08 11:59:06;;;;;;;7.13;2.13;;;28.40;43.60;;;;;;5032860;28;20367;-80
2022/08/08 12:01:32;;;;;;;4.22;2.15;;;28.50;43.50;;;;;;5032688;28;20381;-79
2022/08/08 12:04:01;;;;;;;3.72;2.40;;;28.40;43.30;;;;;;5032550;28;20478;-80
2022/08/08 12:06:27;;;;;;;3.80;2.40;;;28.40;43.30;;;;;;5032639;28;20025;-79
2022/08/08 12:09:03;;;;;;;6.57;2.65;;;28.50;43.10;;;;;;5032522;28;20022;-83
2022/08/08 12:11:40;;;;;;;2.63;2.17;;;28.40;43.30;;;;;;5032553;28;20470;-86
2022/08/08 12:14:06;;;;;;;3.72;2.10;;;28.50;43.50;;;;;;5033308;28;20424;-83
2022/08/08 12:16:33;;;;;;;2.38;1.90;;;28.60;43.90;;;;;;5032509;28;20036;-81
2022/08/08 12:19:01;;;;;;;4.15;2.65;;;28.80;44.50;;;;;;5031840;28;20026;-80
2022/08/08 12:21:33;;;;;;;3.15;2.13;;;28.80;43.20;;;;;;5032284;28;20289;-79
2022/08/08 12:24:07;;;;;;;4.28;2.08;;;28.60;43.30;;;;;;5032104;28;20592;-81
2022/08/08 12:26:52;;;;;;;5.78;2.42;;;28.50;43.40;;;;;;5032095;28;20067;-79
2022/08/08 12:29:23;;;;;;;5.28;2.17;;;28.50;43.40;;;;;;5032658;28;20392;-77
2022/08/08 12:32:15;;;;;;;4.85;1.98;;;28.10;43.40;;;;;;5033023;28;20013;-86
2022/08/08 12:35:01;;;;;;;2.70;1.95;;;27.90;43.30;;;;;;5033429;28;20045;-82
2022/08/08 12:37:29;;;;;;;2.83;2.03;;;28.00;43.40;;;;;;5032118;28;20080;-84
2022/08/08 12:39:56;;;;;;;3.08;2.40;;;28.00;43.40;;;;;;5030476;28;20041;-80
2022/08/08 12:42:23;;;;;;;6.45;2.65;;;27.80;43.50;;;;;;5031733;28;20029;-79
2022/08/08 12:45:00;;;;;;;5.20;2.20;;;27.80;43.80;;;;;;5031646;28;20144;-83
2022/08/08 12:47:26;;;;;;;7.07;2.97;;;27.80;44.00;;;;;;5031861;28;20048;-81
2022/08/08 12:49:55;;;;;;;5.53;2.65;;;28.00;43.90;;;;;;5032674;28;20025;-84
2022/08/08 12:52:23;;;;;;;3.72;2.25;;;28.10;44.10;;;;;;5031727;28;20028;-81
2022/08/08 12:55:00;;;;;;;3.45;2.20;;;28.10;44.40;;;;;;5031797;28;20026;-81
2022/08/08 12:57:27;;;;;;;3.10;2.33;;;28.00;44.70;;;;;;5031851;28;20367;-80
2022/08/08 12:59:54;;;;;;;3.10;2.17;;;28.00;43.60;;;;;;5031653;28;20475;-78
2022/08/08 13:02:25;;;;;;;3.03;2.08;;;27.60;43.90;;;;;;5032139;28;20021;-82
2022/08/08 13:04:52;;;;;;;3.72;2.22;;;27.70;44.90;;;;;;5031229;28;20021;-81
2022/08/08 13:07:18;;;;;;;4.03;2.45;;;27.80;44.60;;;;;;5031597;28;20052;-83
2022/08/08 13:09:58;;;;;;;4.78;2.03;;;27.90;44.90;;;;;;5031910;28;20136;-77
2022/08/08 13:12:25;;;;;;;4.38;2.08;;;28.00;44.60;;;;;;5030422;28;20303;-81
2022/08/08 13:14:53;;;;;;;5.93;2.30;;;28.00;44.40;;;;;;5031177;28;20030;-78
2022/08/08 13:17:24;;;;;;;4.43;2.00;;;28.00;44.50;;;;;;5030517;28;20448;-78
2022/08/08 13:19:50;;;;;;;3.13;2.00;;;27.90;44.10;;;;;;5031788;28;20379;-77
2022/08/08 13:22:16;;;;;;;2.65;2.22;;;27.60;43.90;;;;;;5031446;28;20116;-79
2022/08/08 13:24:43;;;;;;;4.53;2.30;;;27.70;44.70;;;;;;5030939;28;20029;-79
2022/08/08 13:27:11;;;;;;;3.28;2.30;;;27.60;44.90;;;;;;5031144;28;20040;-78
2022/08/08 13:29:53;;;;;;;5.53;3.03;;;27.60;44.80;;;;;;5030847;28;20116;-77